Loma Alta, Texas
Current Conditions -  °F | °C
As of 10:53 AM on Saturday 22 Nov 2014 (Local Time) from KDRT Reporting Station
Broken Clouds Broken Clouds  
Wind Chill: 72°   Ceiling: 1400
Heat Index: 72°   Visibility: 10mi
Dew Point: 65°   Wind: 16mph
Humidity: 78%   Direction: 160°SSE
Pressure: 29.88"   Gusts: NA
Location:  29.92°N, 100.87°W
Report Text: KDRT 221653Z AUTO 16014KT 10SM BKN014 BKN038 22/18 A2988 RMK AO2 SLP105 T02220183
Loading
Personal Weather Stations






























Interactive Weather Map New forecast layout! Learn more

10-Day Weather Forecast

Advertisements
Track Severe Weather on mobile